sensor_id;sensor_type;location;lat;lon;timestamp;P1;durP1;ratioP1;P2;durP2;ratioP2
41221;SDS011;26952;42.884;23.918;2023-04-01T00:00:47;9.10;;;8.40;;
41221;SDS011;26952;42.884;23.918;2023-04-01T00:03:13;10.93;;;9.95;;
41221;SDS011;26952;42.884;23.918;2023-04-01T00:05:38;10.15;;;9.52;;
41221;SDS011;26952;42.884;23.918;2023-04-01T00:08:04;9.05;;;8.32;;
41221;SDS011;26952;42.884;23.918;2023-04-01T00:10:29;9.65;;;8.63;;
41221;SDS011;26952;42.884;23.918;2023-04-01T00:12:55;8.25;;;7.53;;
41221;SDS011;26952;42.884;23.918;2023-04-01T00:15:20;6.82;;;6.32;;
41221;SDS011;26952;42.884;23.918;2023-04-01T00:17:46;6.20;;;5.60;;
41221;SDS011;26952;42.884;23.918;2023-04-01T00:20:11;5.10;;;4.65;;
41221;SDS011;26952;42.884;23.918;2023-04-01T00:22:37;6.72;;;6.18;;
41221;SDS011;26952;42.884;23.918;2023-04-01T00:25:03;6.43;;;4.95;;
41221;SDS011;26952;42.884;23.918;2023-04-01T00:27:29;6.63;;;6.03;;
41221;SDS011;26952;42.884;23.918;2023-04-01T00:29:55;8.55;;;5.97;;
41221;SDS011;26952;42.884;23.918;2023-04-01T00:32:20;10.65;;;5.68;;
41221;SDS011;26952;42.884;23.918;2023-04-01T00:34:49;6.72;;;5.95;;
41221;SDS011;26952;42.884;23.918;2023-04-01T00:37:16;6.63;;;5.65;;
41221;SDS011;26952;42.884;23.918;2023-04-01T00:39:42;7.03;;;6.15;;
41221;SDS011;26952;42.884;23.918;2023-04-01T00:42:08;8.50;;;7.80;;
41221;SDS011;26952;42.884;23.918;2023-04-01T00:44:40;8.25;;;7.55;;
41221;SDS011;26952;42.884;23.918;2023-04-01T00:47:05;7.47;;;5.97;;
41221;SDS011;26952;42.884;23.918;2023-04-01T00:49:33;6.78;;;5.97;;
41221;SDS011;26952;42.884;23.918;2023-04-01T00:52:07;7.10;;;6.15;;
41221;SDS011;26952;42.884;23.918;2023-04-01T00:54:36;6.65;;;6.05;;
41221;SDS011;26952;42.884;23.918;2023-04-01T00:57:05;7.45;;;6.57;;
41221;SDS011;26952;42.884;23.918;2023-04-01T00:59:39;8.27;;;7.68;;
41221;SDS011;26952;42.884;23.918;2023-04-01T01:02:09;6.35;;;5.78;;
41221;SDS011;26952;42.884;23.918;2023-04-01T01:04:36;9.40;;;8.48;;
41221;SDS011;26952;42.884;23.918;2023-04-01T01:09:55;10.00;;;9.13;;
41221;SDS011;26952;42.884;23.918;2023-04-01T01:12:38;11.07;;;10.13;;
41221;SDS011;26952;42.884;23.918;2023-04-01T01:15:25;10.23;;;9.63;;
41221;SDS011;26952;42.884;23.918;2023-04-01T01:17:58;11.00;;;10.10;;
41221;SDS011;26952;42.884;23.918;2023-04-01T01:23:02;11.65;;;10.65;;
41221;SDS011;26952;42.884;23.918;2023-04-01T01:29:00;10.07;;;9.07;;
41221;SDS011;26952;42.884;23.918;2023-04-01T01:33:54;16.20;;;15.10;;
41221;SDS011;26952;42.884;23.918;2023-04-01T01:36:23;16.58;;;15.48;;
41221;SDS011;26952;42.884;23.918;2023-04-01T01:38:54;18.88;;;17.55;;
41221;SDS011;26952;42.884;23.918;2023-04-01T01:41:20;17.70;;;16.85;;
41221;SDS011;26952;42.884;23.918;2023-04-01T01:43:50;18.88;;;17.85;;
41221;SDS011;26952;42.884;23.918;2023-04-01T01:46:20;19.70;;;18.35;;
41221;SDS011;26952;42.884;23.918;2023-04-01T01:51:16;15.10;;;14.18;;
41221;SDS011;26952;42.884;23.918;2023-04-01T01:53:43;17.38;;;16.23;;
41221;SDS011;26952;42.884;23.918;2023-04-01T01:56:09;15.90;;;14.95;;
41221;SDS011;26952;42.884;23.918;2023-04-01T01:58:44;10.85;;;9.77;;
41221;SDS011;26952;42.884;23.918;2023-04-01T02:01:20;10.30;;;8.50;;
41221;SDS011;26952;42.884;23.918;2023-04-01T02:03:51;9.75;;;8.68;;
41221;SDS011;26952;42.884;23.918;2023-04-01T02:06:18;7.68;;;6.97;;
41221;SDS011;26952;42.884;23.918;2023-04-01T02:14:10;7.22;;;4.80;;
41221;SDS011;26952;42.884;23.918;2023-04-01T02:16:43;8.85;;;7.88;;
41221;SDS011;26952;42.884;23.918;2023-04-01T02:19:13;10.73;;;10.02;;
41221;SDS011;26952;42.884;23.918;2023-04-01T02:21:47;12.25;;;11.35;;
41221;SDS011;26952;42.884;23.918;2023-04-01T02:24:16;15.23;;;13.70;;
41221;SDS011;26952;42.884;23.918;2023-04-01T02:26:46;16.77;;;15.40;;
41221;SDS011;26952;42.884;23.918;2023-04-01T02:29:12;15.85;;;14.75;;
41221;SDS011;26952;42.884;23.918;2023-04-01T02:31:38;16.08;;;14.98;;
41221;SDS011;26952;42.884;23.918;2023-04-01T02:34:03;16.17;;;14.77;;
41221;SDS011;26952;42.884;23.918;2023-04-01T02:36:29;13.02;;;12.13;;
41221;SDS011;26952;42.884;23.918;2023-04-01T02:38:55;13.52;;;12.30;;
41221;SDS011;26952;42.884;23.918;2023-04-01T02:41:26;10.25;;;9.35;;
41221;SDS011;26952;42.884;23.918;2023-04-01T02:43:51;10.80;;;9.70;;
41221;SDS011;26952;42.884;23.918;2023-04-01T02:46:16;8.95;;;8.05;;
41221;SDS011;26952;42.884;23.918;2023-04-01T02:48:42;10.40;;;9.40;;
41221;SDS011;26952;42.884;23.918;2023-04-01T02:51:08;7.60;;;7.10;;
41221;SDS011;26952;42.884;23.918;2023-04-01T02:53:33;10.43;;;7.03;;
41221;SDS011;26952;42.884;23.918;2023-04-01T02:55:59;8.18;;;7.57;;
41221;SDS011;26952;42.884;23.918;2023-04-01T02:58:24;7.80;;;7.03;;
41221;SDS011;26952;42.884;23.918;2023-04-01T03:00:50;7.03;;;6.25;;
41221;SDS011;26952;42.884;23.918;2023-04-01T03:03:15;7.07;;;6.45;;
41221;SDS011;26952;42.884;23.918;2023-04-01T03:05:41;7.28;;;6.60;;
41221;SDS011;26952;42.884;23.918;2023-04-01T03:08:06;7.57;;;7.07;;
41221;SDS011;26952;42.884;23.918;2023-04-01T03:10:32;14.23;;;8.13;;
41221;SDS011;26952;42.884;23.918;2023-04-01T03:12:57;13.07;;;7.93;;
41221;SDS011;26952;42.884;23.918;2023-04-01T03:15:22;10.30;;;8.55;;
41221;SDS011;26952;42.884;23.918;2023-04-01T03:17:48;9.10;;;8.30;;
41221;SDS011;26952;42.884;23.918;2023-04-01T03:20:13;8.80;;;8.07;;
41221;SDS011;26952;42.884;23.918;2023-04-01T03:22:40;9.63;;;8.48;;
41221;SDS011;26952;42.884;23.918;2023-04-01T03:25:06;8.35;;;7.63;;
41221;SDS011;26952;42.884;23.918;2023-04-01T03:27:33;7.63;;;7.05;;
41221;SDS011;26952;42.884;23.918;2023-04-01T03:30:00;7.88;;;7.28;;
41221;SDS011;26952;42.884;23.918;2023-04-01T03:32:25;13.57;;;12.55;;
41221;SDS011;26952;42.884;23.918;2023-04-01T03:34:52;15.38;;;14.13;;
41221;SDS011;26952;42.884;23.918;2023-04-01T03:37:17;14.77;;;13.90;;
41221;SDS011;26952;42.884;23.918;2023-04-01T03:39:43;13.90;;;12.80;;
41221;SDS011;26952;42.884;23.918;2023-04-01T03:42:08;11.32;;;10.43;;
41221;SDS011;26952;42.884;23.918;2023-04-01T03:44:34;8.90;;;8.07;;
41221;SDS011;26952;42.884;23.918;2023-04-01T03:47:00;8.63;;;7.45;;
41221;SDS011;26952;42.884;23.918;2023-04-01T03:49:26;13.82;;;12.85;;
41221;SDS011;26952;42.884;23.918;2023-04-01T03:51:51;14.30;;;13.35;;
41221;SDS011;26952;42.884;23.918;2023-04-01T03:54:17;11.70;;;10.98;;
41221;SDS011;26952;42.884;23.918;2023-04-01T03:56:43;26.33;;;24.42;;
41221;SDS011;26952;42.884;23.918;2023-04-01T03:59:08;26.77;;;25.17;;
41221;SDS011;26952;42.884;23.918;2023-04-01T04:01:34;32.38;;;30.35;;
41221;SDS011;26952;42.884;23.918;2023-04-01T04:03:59;28.67;;;26.75;;
41221;SDS011;26952;42.884;23.918;2023-04-01T04:06:25;33.72;;;31.63;;
41221;SDS011;26952;42.884;23.918;2023-04-01T04:08:51;32.63;;;30.52;;
41221;SDS011;26952;42.884;23.918;2023-04-01T04:11:18;27.77;;;26.10;;
41221;SDS011;26952;42.884;23.918;2023-04-01T04:13:45;30.38;;;28.55;;
41221;SDS011;26952;42.884;23.918;2023-04-01T04:16:10;27.23;;;25.20;;
41221;SDS011;26952;42.884;23.918;2023-04-01T04:18:36;24.58;;;22.80;;
41221;SDS011;26952;42.884;23.918;2023-04-01T04:21:02;22.13;;;20.73;;
41221;SDS011;26952;42.884;23.918;2023-04-01T04:23:28;23.65;;;21.95;;
41221;SDS011;26952;42.884;23.918;2023-04-01T04:25:59;25.42;;;23.90;;
41221;SDS011;26952;42.884;23.918;2023-04-01T04:28:26;22.20;;;20.58;;
41221;SDS011;26952;42.884;23.918;2023-04-01T04:30:53;26.75;;;25.20;;
41221;SDS011;26952;42.884;23.918;2023-04-01T04:33:19;18.98;;;17.58;;
41221;SDS011;26952;42.884;23.918;2023-04-01T04:35:45;10.70;;;9.75;;
41221;SDS011;26952;42.884;23.918;2023-04-01T04:38:10;10.50;;;9.50;;
41221;SDS011;26952;42.884;23.918;2023-04-01T04:40:39;7.68;;;6.97;;
41221;SDS011;26952;42.884;23.918;2023-04-01T04:43:05;12.00;;;8.57;;
41221;SDS011;26952;42.884;23.918;2023-04-01T04:45:32;29.77;;;26.67;;
41221;SDS011;26952;42.884;23.918;2023-04-01T04:47:57;11.98;;;9.73;;
41221;SDS011;26952;42.884;23.918;2023-04-01T04:50:23;8.60;;;7.72;;
41221;SDS011;26952;42.884;23.918;2023-04-01T04:52:49;7.10;;;6.30;;
41221;SDS011;26952;42.884;23.918;2023-04-01T04:55:15;7.90;;;6.90;;
41221;SDS011;26952;42.884;23.918;2023-04-01T04:57:40;9.60;;;8.77;;
41221;SDS011;26952;42.884;23.918;2023-04-01T05:00:06;9.50;;;8.60;;
41221;SDS011;26952;42.884;23.918;2023-04-01T05:02:33;9.98;;;9.18;;
41221;SDS011;26952;42.884;23.918;2023-04-01T05:04:58;10.65;;;9.65;;
41221;SDS011;26952;42.884;23.918;2023-04-01T05:07:23;8.57;;;7.78;;
41221;SDS011;26952;42.884;23.918;2023-04-01T05:09:49;8.18;;;7.57;;
41221;SDS011;26952;42.884;23.918;2023-04-01T05:12:15;9.07;;;8.38;;
41221;SDS011;26952;42.884;23.918;2023-04-01T05:14:40;10.73;;;9.95;;
41221;SDS011;26952;42.884;23.918;2023-04-01T05:17:08;12.75;;;11.73;;
41221;SDS011;26952;42.884;23.918;2023-04-01T05:19:35;10.48;;;9.45;;
41221;SDS011;26952;42.884;23.918;2023-04-01T05:22:00;9.25;;;8.35;;
41221;SDS011;26952;42.884;23.918;2023-04-01T05:24:26;9.88;;;8.10;;
41221;SDS011;26952;42.884;23.918;2023-04-01T05:26:51;8.77;;;8.07;;
41221;SDS011;26952;42.884;23.918;2023-04-01T05:29:16;9.93;;;8.65;;
41221;SDS011;26952;42.884;23.918;2023-04-01T05:31:42;9.77;;;9.10;;
41221;SDS011;26952;42.884;23.918;2023-04-01T05:34:07;19.33;;;18.05;;
41221;SDS011;26952;42.884;23.918;2023-04-01T05:36:33;20.25;;;19.08;;
41221;SDS011;26952;42.884;23.918;2023-04-01T05:38:59;23.33;;;21.77;;
41221;SDS011;26952;42.884;23.918;2023-04-01T05:41:24;20.45;;;19.17;;
41221;SDS011;26952;42.884;23.918;2023-04-01T05:43:50;12.10;;;10.90;;
41221;SDS011;26952;42.884;23.918;2023-04-01T05:46:16;9.77;;;9.02;;
41221;SDS011;26952;42.884;23.918;2023-04-01T05:48:41;23.02;;;21.55;;
41221;SDS011;26952;42.884;23.918;2023-04-01T05:51:11;18.33;;;16.95;;
41221;SDS011;26952;42.884;23.918;2023-04-01T05:53:38;13.30;;;12.20;;
41221;SDS011;26952;42.884;23.918;2023-04-01T05:56:04;14.52;;;13.18;;
41221;SDS011;26952;42.884;23.918;2023-04-01T05:58:30;17.80;;;16.30;;
41221;SDS011;26952;42.884;23.918;2023-04-01T06:01:29;22.08;;;20.45;;
41221;SDS011;26952;42.884;23.918;2023-04-01T06:03:47;18.27;;;16.80;;
41221;SDS011;26952;42.884;23.918;2023-04-01T06:06:13;15.18;;;13.98;;
41221;SDS011;26952;42.884;23.918;2023-04-01T06:08:41;14.57;;;13.35;;
41221;SDS011;26952;42.884;23.918;2023-04-01T06:22:26;52.30;;;48.70;;
41221;SDS011;26952;42.884;23.918;2023-04-01T06:46:47;17.95;;;16.58;;
41221;SDS011;26952;42.884;23.918;2023-04-01T06:49:36;22.83;;;21.38;;
41221;SDS011;26952;42.884;23.918;2023-04-01T06:54:42;20.30;;;19.00;;
41221;SDS011;26952;42.884;23.918;2023-04-01T07:00:04;17.63;;;16.48;;
41221;SDS011;26952;42.884;23.918;2023-04-01T07:02:45;16.98;;;15.57;;
41221;SDS011;26952;42.884;23.918;2023-04-01T07:05:18;18.83;;;17.15;;
41221;SDS011;26952;42.884;23.918;2023-04-01T07:07:45;14.85;;;13.55;;
41221;SDS011;26952;42.884;23.918;2023-04-01T07:10:17;25.00;;;23.30;;
41221;SDS011;26952;42.884;23.918;2023-04-01T07:13:04;24.75;;;23.05;;
41221;SDS011;26952;42.884;23.918;2023-04-01T07:15:39;20.48;;;18.90;;
41221;SDS011;26952;42.884;23.918;2023-04-01T07:18:22;17.73;;;16.38;;
41221;SDS011;26952;42.884;23.918;2023-04-01T07:20:56;20.33;;;18.60;;
41221;SDS011;26952;42.884;23.918;2023-04-01T07:23:23;25.40;;;23.80;;
41221;SDS011;26952;42.884;23.918;2023-04-01T07:25:58;12.43;;;11.48;;
41221;SDS011;26952;42.884;23.918;2023-04-01T07:28:32;11.20;;;10.25;;
41221;SDS011;26952;42.884;23.918;2023-04-01T07:36:38;13.35;;;12.32;;
41221;SDS011;26952;42.884;23.918;2023-04-01T07:50:00;54.38;;;51.00;;
41221;SDS011;26952;42.884;23.918;2023-04-01T07:55:42;55.47;;;52.08;;
41221;SDS011;26952;42.884;23.918;2023-04-01T08:04:04;69.47;;;65.88;;
41221;SDS011;26952;42.884;23.918;2023-04-01T08:23:07;57.55;;;54.28;;
41221;SDS011;26952;42.884;23.918;2023-04-01T08:25:40;57.42;;;54.50;;
41221;SDS011;26952;42.884;23.918;2023-04-01T08:28:30;59.03;;;55.78;;
41221;SDS011;26952;42.884;23.918;2023-04-01T08:31:04;52.53;;;49.75;;
41221;SDS011;26952;42.884;23.918;2023-04-01T08:33:36;59.13;;;55.97;;
41221;SDS011;26952;42.884;23.918;2023-04-01T08:36:10;58.42;;;55.38;;
41221;SDS011;26952;42.884;23.918;2023-04-01T08:38:43;58.00;;;54.65;;
41221;SDS011;26952;42.884;23.918;2023-04-01T08:57:19;47.53;;;44.83;;
41221;SDS011;26952;42.884;23.918;2023-04-01T08:59:51;55.60;;;52.78;;
41221;SDS011;26952;42.884;23.918;2023-04-01T09:02:33;53.97;;;51.05;;
41221;SDS011;26952;42.884;23.918;2023-04-01T09:15:55;51.47;;;48.70;;
41221;SDS011;26952;42.884;23.918;2023-04-01T09:42:56;56.55;;;53.70;;
41221;SDS011;26952;42.884;23.918;2023-04-01T09:48:21;54.53;;;51.70;;
41221;SDS011;26952;42.884;23.918;2023-04-01T09:52:20;57.55;;;54.33;;
41221;SDS011;26952;42.884;23.918;2023-04-01T09:54:45;55.15;;;51.55;;
41221;SDS011;26952;42.884;23.918;2023-04-01T10:18:50;55.78;;;52.53;;
41221;SDS011;26952;42.884;23.918;2023-04-01T10:24:43;49.58;;;46.15;;
41221;SDS011;26952;42.884;23.918;2023-04-01T10:51:49;46.80;;;43.88;;
41221;SDS011;26952;42.884;23.918;2023-04-01T11:06:06;52.60;;;49.63;;
41221;SDS011;26952;42.884;23.918;2023-04-01T11:11:47;67.85;;;64.03;;
41221;SDS011;26952;42.884;23.918;2023-04-01T11:23:48;72.93;;;68.93;;
41221;SDS011;26952;42.884;23.918;2023-04-01T11:26:25;71.95;;;67.90;;
41221;SDS011;26952;42.884;23.918;2023-04-01T11:37:10;50.78;;;47.85;;
41221;SDS011;26952;42.884;23.918;2023-04-01T11:40:11;43.08;;;40.60;;
41221;SDS011;26952;42.884;23.918;2023-04-01T11:42:52;43.15;;;40.53;;
41221;SDS011;26952;42.884;23.918;2023-04-01T11:45:42;36.80;;;34.42;;
41221;SDS011;26952;42.884;23.918;2023-04-01T11:56:19;34.72;;;32.65;;
41221;SDS011;26952;42.884;23.918;2023-04-01T11:58:53;31.08;;;28.98;;
41221;SDS011;26952;42.884;23.918;2023-04-01T12:07:02;24.13;;;22.33;;
41221;SDS011;26952;42.884;23.918;2023-04-01T12:12:19;32.75;;;30.55;;
41221;SDS011;26952;42.884;23.918;2023-04-01T12:18:00;49.78;;;46.97;;
41221;SDS011;26952;42.884;23.918;2023-04-01T12:20:38;33.00;;;31.02;;
41221;SDS011;26952;42.884;23.918;2023-04-01T12:32:05;19.38;;;17.88;;
41221;SDS011;26952;42.884;23.918;2023-04-01T12:37:35;41.35;;;38.88;;
41221;SDS011;26952;42.884;23.918;2023-04-01T12:45:54;25.85;;;24.08;;
41221;SDS011;26952;42.884;23.918;2023-04-01T12:58:56;14.40;;;13.40;;
41221;SDS011;26952;42.884;23.918;2023-04-01T13:02:18;22.50;;;20.58;;
41221;SDS011;26952;42.884;23.918;2023-04-01T13:07:21;22.20;;;20.23;;
41221;SDS011;26952;42.884;23.918;2023-04-01T13:10:01;20.30;;;16.42;;
41221;SDS011;26952;42.884;23.918;2023-04-01T13:15:12;24.27;;;22.48;;
41221;SDS011;26952;42.884;23.918;2023-04-01T13:18:03;14.68;;;13.45;;
41221;SDS011;26952;42.884;23.918;2023-04-01T13:28:50;11.77;;;10.85;;
41221;SDS011;26952;42.884;23.918;2023-04-01T13:31:38;12.77;;;11.98;;
41221;SDS011;26952;42.884;23.918;2023-04-01T13:37:37;17.42;;;16.20;;
41221;SDS011;26952;42.884;23.918;2023-04-01T13:42:59;20.17;;;18.88;;
41221;SDS011;26952;42.884;23.918;2023-04-01T13:45:38;18.67;;;17.52;;
41221;SDS011;26952;42.884;23.918;2023-04-01T14:05:25;23.63;;;22.20;;
41221;SDS011;26952;42.884;23.918;2023-04-01T14:14:06;23.17;;;21.73;;
41221;SDS011;26952;42.884;23.918;2023-04-01T14:19:27;25.98;;;24.55;;
41221;SDS011;26952;42.884;23.918;2023-04-01T14:44:23;13.10;;;12.20;;
41221;SDS011;26952;42.884;23.918;2023-04-01T14:47:34;13.07;;;12.32;;
41221;SDS011;26952;42.884;23.918;2023-04-01T14:50:14;13.70;;;12.85;;
41221;SDS011;26952;42.884;23.918;2023-04-01T14:58:16;9.98;;;9.07;;
41221;SDS011;26952;42.884;23.918;2023-04-01T15:55:48;18.88;;;17.30;;
41221;SDS011;26952;42.884;23.918;2023-04-01T15:58:34;10.57;;;9.88;;
41221;SDS011;26952;42.884;23.918;2023-04-01T16:12:03;14.98;;;14.07;;
41221;SDS011;26952;42.884;23.918;2023-04-01T16:14:39;17.80;;;16.63;;
41221;SDS011;26952;42.884;23.918;2023-04-01T16:17:25;16.08;;;14.88;;
41221;SDS011;26952;42.884;23.918;2023-04-01T16:25:33;23.33;;;21.65;;
41221;SDS011;26952;42.884;23.918;2023-04-01T16:28:17;23.10;;;21.70;;
41221;SDS011;26952;42.884;23.918;2023-04-01T16:30:54;9.63;;;8.77;;
41221;SDS011;26952;42.884;23.918;2023-04-01T16:44:44;18.00;;;17.13;;
41221;SDS011;26952;42.884;23.918;2023-04-01T16:47:17;14.90;;;13.98;;
41221;SDS011;26952;42.884;23.918;2023-04-01T16:49:46;14.65;;;13.75;;
41221;SDS011;26952;42.884;23.918;2023-04-01T16:52:29;16.15;;;15.43;;
41221;SDS011;26952;42.884;23.918;2023-04-01T16:55:04;15.68;;;14.98;;
41221;SDS011;26952;42.884;23.918;2023-04-01T16:57:51;18.42;;;17.45;;
41221;SDS011;26952;42.884;23.918;2023-04-01T17:00:28;17.10;;;16.20;;
41221;SDS011;26952;42.884;23.918;2023-04-01T17:05:36;15.57;;;14.88;;
41221;SDS011;26952;42.884;23.918;2023-04-01T17:08:10;19.75;;;17.98;;
41221;SDS011;26952;42.884;23.918;2023-04-01T17:13:32;14.98;;;14.27;;
41221;SDS011;26952;42.884;23.918;2023-04-01T17:16:23;21.80;;;19.60;;
41221;SDS011;26952;42.884;23.918;2023-04-01T17:21:45;34.05;;;30.73;;
41221;SDS011;26952;42.884;23.918;2023-04-01T17:24:26;23.65;;;21.17;;
41221;SDS011;26952;42.884;23.918;2023-04-01T17:35:22;12.20;;;11.50;;
41221;SDS011;26952;42.884;23.918;2023-04-01T17:46:05;11.38;;;10.77;;
41221;SDS011;26952;42.884;23.918;2023-04-01T17:49:17;23.15;;;21.27;;
41221;SDS011;26952;42.884;23.918;2023-04-01T17:54:41;10.55;;;10.05;;
41221;SDS011;26952;42.884;23.918;2023-04-01T17:59:43;11.75;;;11.23;;
41221;SDS011;26952;42.884;23.918;2023-04-01T18:05:55;7.40;;;7.00;;
41221;SDS011;26952;42.884;23.918;2023-04-01T18:08:16;7.95;;;7.55;;
41221;SDS011;26952;42.884;23.918;2023-04-01T18:10:54;8.05;;;7.65;;
41221;SDS011;26952;42.884;23.918;2023-04-01T18:16:02;8.15;;;7.75;;
41221;SDS011;26952;42.884;23.918;2023-04-01T18:21:47;7.75;;;7.35;;
41221;SDS011;26952;42.884;23.918;2023-04-01T18:27:23;10.02;;;9.45;;
41221;SDS011;26952;42.884;23.918;2023-04-01T18:32:34;7.43;;;6.93;;
41221;SDS011;26952;42.884;23.918;2023-04-01T18:35:50;9.18;;;8.77;;
41221;SDS011;26952;42.884;23.918;2023-04-01T18:40:30;6.32;;;6.05;;
41221;SDS011;26952;42.884;23.918;2023-04-01T18:45:34;6.80;;;6.40;;
41221;SDS011;26952;42.884;23.918;2023-04-01T18:50:56;11.52;;;10.95;;
41221;SDS011;26952;42.884;23.918;2023-04-01T18:53:40;10.48;;;9.88;;
41221;SDS011;26952;42.884;23.918;2023-04-01T18:56:09;7.82;;;7.50;;
41221;SDS011;26952;42.884;23.918;2023-04-01T19:01:41;8.48;;;8.10;;
41221;SDS011;26952;42.884;23.918;2023-04-01T19:15:34;6.95;;;6.63;;
41221;SDS011;26952;42.884;23.918;2023-04-01T19:18:25;6.63;;;6.32;;
41221;SDS011;26952;42.884;23.918;2023-04-01T19:22:03;5.60;;;5.30;;
41221;SDS011;26952;42.884;23.918;2023-04-01T19:37:45;4.13;;;3.92;;
41221;SDS011;26952;42.884;23.918;2023-04-01T19:48:43;4.65;;;4.45;;
41221;SDS011;26952;42.884;23.918;2023-04-01T19:51:29;4.95;;;4.70;;
41221;SDS011;26952;42.884;23.918;2023-04-01T19:54:01;7.20;;;6.75;;
41221;SDS011;26952;42.884;23.918;2023-04-01T19:56:31;7.10;;;6.65;;
41221;SDS011;26952;42.884;23.918;2023-04-01T20:02:15;7.63;;;7.25;;
41221;SDS011;26952;42.884;23.918;2023-04-01T20:04:36;3.40;;;3.28;;
41221;SDS011;26952;42.884;23.918;2023-04-01T20:07:53;3.83;;;3.63;;
41221;SDS011;26952;42.884;23.918;2023-04-01T20:10:20;3.75;;;3.55;;
41221;SDS011;26952;42.884;23.918;2023-04-01T20:13:00;3.50;;;3.30;;
41221;SDS011;26952;42.884;23.918;2023-04-01T20:15:45;4.60;;;4.40;;
41221;SDS011;26952;42.884;23.918;2023-04-01T20:18:22;3.22;;;3.13;;
41221;SDS011;26952;42.884;23.918;2023-04-01T20:20:57;3.75;;;3.55;;
41221;SDS011;26952;42.884;23.918;2023-04-01T20:23:50;5.30;;;5.10;;
41221;SDS011;26952;42.884;23.918;2023-04-01T20:26:26;9.48;;;9.00;;
41221;SDS011;26952;42.884;23.918;2023-04-01T20:29:11;10.65;;;10.13;;
41221;SDS011;26952;42.884;23.918;2023-04-01T20:31:43;10.35;;;9.82;;
41221;SDS011;26952;42.884;23.918;2023-04-01T20:37:13;11.65;;;11.07;;
41221;SDS011;26952;42.884;23.918;2023-04-01T20:39:45;12.05;;;11.40;;
41221;SDS011;26952;42.884;23.918;2023-04-01T20:50:50;9.07;;;8.63;;
41221;SDS011;26952;42.884;23.918;2023-04-01T20:53:30;7.20;;;6.80;;
41221;SDS011;26952;42.884;23.918;2023-04-01T21:07:10;6.80;;;6.20;;
41221;SDS011;26952;42.884;23.918;2023-04-01T21:09:53;7.43;;;7.03;;
41221;SDS011;26952;42.884;23.918;2023-04-01T21:20:54;5.30;;;5.00;;
41221;SDS011;26952;42.884;23.918;2023-04-01T21:56:28;7.18;;;6.78;;
41221;SDS011;26952;42.884;23.918;2023-04-01T22:04:47;7.22;;;6.82;;
41221;SDS011;26952;42.884;23.918;2023-04-01T22:07:25;7.43;;;6.97;;
41221;SDS011;26952;42.884;23.918;2023-04-01T22:10:22;7.60;;;7.20;;
41221;SDS011;26952;42.884;23.918;2023-04-01T22:12:52;6.80;;;6.45;;
41221;SDS011;26952;42.884;23.918;2023-04-01T22:18:13;6.15;;;5.85;;
41221;SDS011;26952;42.884;23.918;2023-04-01T22:28:42;4.20;;;4.00;;
41221;SDS011;26952;42.884;23.918;2023-04-01T22:31:19;4.50;;;4.30;;
41221;SDS011;26952;42.884;23.918;2023-04-01T22:34:15;4.45;;;4.25;;
41221;SDS011;26952;42.884;23.918;2023-04-01T22:50:27;5.35;;;5.05;;
41221;SDS011;26952;42.884;23.918;2023-04-01T22:55:44;5.22;;;4.95;;
41221;SDS011;26952;42.884;23.918;2023-04-01T22:58:18;5.40;;;5.20;;
41221;SDS011;26952;42.884;23.918;2023-04-01T23:00:58;5.00;;;4.80;;
41221;SDS011;26952;42.884;23.918;2023-04-01T23:03:28;5.20;;;5.00;;
41221;SDS011;26952;42.884;23.918;2023-04-01T23:06:00;5.55;;;5.25;;
41221;SDS011;26952;42.884;23.918;2023-04-01T23:11:17;5.70;;;5.50;;
41221;SDS011;26952;42.884;23.918;2023-04-01T23:13:49;5.32;;;5.13;;
41221;SDS011;26952;42.884;23.918;2023-04-01T23:16:28;4.10;;;3.90;;
41221;SDS011;26952;42.884;23.918;2023-04-01T23:18:58;4.43;;;4.22;;
41221;SDS011;26952;42.884;23.918;2023-04-01T23:21:34;5.82;;;5.53;;
41221;SDS011;26952;42.884;23.918;2023-04-01T23:29:19;3.88;;;3.65;;
41221;SDS011;26952;42.884;23.918;2023-04-01T23:32:13;3.35;;;3.15;;
41221;SDS011;26952;42.884;23.918;2023-04-01T23:34:40;5.18;;;4.93;;
41221;SDS011;26952;42.884;23.918;2023-04-01T23:37:13;9.43;;;9.00;;
41221;SDS011;26952;42.884;23.918;2023-04-01T23:39:42;14.18;;;13.45;;
41221;SDS011;26952;42.884;23.918;2023-04-01T23:42:14;11.52;;;11.02;;
41221;SDS011;26952;42.884;23.918;2023-04-01T23:44:45;9.18;;;8.60;;
41221;SDS011;26952;42.884;23.918;2023-04-01T23:47:15;11.38;;;10.80;;
41221;SDS011;26952;42.884;23.918;2023-04-01T23:49:45;13.45;;;12.75;;
41221;SDS011;26952;42.884;23.918;2023-04-01T23:54:48;14.48;;;13.77;;
41221;SDS011;26952;42.884;23.918;2023-04-01T23:57:21;13.48;;;12.77;;
